Time;durP1;ratioP1;P1;durP2;ratioP2;P2;SDS_P1;SDS_P2;PMS_P1;PMS_P2;Temp;Humidity;BMP_temperature;BMP_pressure;BME280_temperature;BME280_humidity;BME280_pressure;Samples;Min_cycle;Max_cycle;Signal;HPM_P1;HPM_P2
2022/11/15 00:00:30;;;;;;;6.60;2.10;;;23.40;65.30;;;;;;5098227;28;20020;-67
2022/11/15 00:02:57;;;;;;;10.82;2.38;;;23.30;65.30;;;;;;5089220;28;20077;-68
2022/11/15 00:05:23;;;;;;;7.13;2.45;;;23.30;65.30;;;;;;5095723;28;20423;-68
2022/11/15 00:07:50;;;;;;;11.52;2.22;;;23.30;65.50;;;;;;5090509;28;20024;-69
2022/11/15 00:10:17;;;;;;;22.35;13.18;;;23.30;65.60;;;;;;5100793;28;20030;-67
2022/11/15 00:12:43;;;;;;;25.70;14.93;;;23.20;65.90;;;;;;5086507;28;20032;-67
2022/11/15 00:15:10;;;;;;;21.77;9.45;;;23.20;66.00;;;;;;5089151;28;20394;-67
2022/11/15 00:17:36;;;;;;;23.95;6.43;;;23.20;66.50;;;;;;5089011;28;20020;-67
2022/11/15 00:20:04;;;;;;;12.23;3.95;;;23.20;67.30;;;;;;5089322;28;20136;-66
2022/11/15 00:22:34;;;;;;;15.80;4.90;;;23.20;67.40;;;;;;5089933;28;20635;-68
2022/11/15 00:25:00;;;;;;;11.30;3.42;;;23.20;67.00;;;;;;5092401;28;20044;-66
2022/11/15 00:27:27;;;;;;;12.98;2.42;;;23.20;67.00;;;;;;5091498;28;20413;-67
2022/11/15 00:29:53;;;;;;;4.47;3.10;;;23.20;67.30;;;;;;5095421;28;20024;-68
2022/11/15 00:32:20;;;;;;;13.55;2.40;;;23.20;67.20;;;;;;5095481;28;20027;-67
2022/11/15 00:34:47;;;;;;;7.13;2.20;;;23.10;67.20;;;;;;5094911;28;20028;-67
2022/11/15 00:37:13;;;;;;;7.10;1.65;;;23.10;67.20;;;;;;5091663;28;20027;-67
2022/11/15 00:39:40;;;;;;;9.00;2.47;;;23.10;67.20;;;;;;5095645;28;20039;-68
2022/11/15 00:42:06;;;;;;;8.65;3.13;;;23.10;67.30;;;;;;5086963;28;20116;-65
2022/11/15 00:44:33;;;;;;;8.82;2.90;;;23.10;67.40;;;;;;5098259;28;20031;-67
2022/11/15 00:46:59;;;;;;;9.93;2.50;;;23.00;67.40;;;;;;5090888;28;20042;-67
2022/11/15 00:49:26;;;;;;;6.95;2.50;;;23.10;67.60;;;;;;5095031;28;20020;-66
2022/11/15 00:51:52;;;;;;;9.30;3.03;;;23.00;67.70;;;;;;5096821;28;20028;-67
2022/11/15 00:54:19;;;;;;;9.90;2.00;;;23.00;67.90;;;;;;5102806;28;20099;-68
2022/11/15 00:56:45;;;;;;;7.20;2.50;;;23.00;67.80;;;;;;5095974;28;20483;-68
2022/11/15 00:59:12;;;;;;;7.25;2.45;;;23.00;67.90;;;;;;5093220;28;21921;-67
2022/11/15 01:01:38;;;;;;;6.22;2.92;;;23.00;68.10;;;;;;5088076;28;20025;-66
2022/11/15 01:04:05;;;;;;;14.10;3.30;;;23.00;68.00;;;;;;5095766;28;20035;-67
2022/11/15 01:06:31;;;;;;;8.05;2.45;;;22.90;68.10;;;;;;5096045;28;20088;-68
2022/11/15 01:08:58;;;;;;;9.23;3.25;;;22.90;68.40;;;;;;5095633;28;20120;-68
2022/11/15 01:11:24;;;;;;;9.88;3.78;;;22.90;68.50;;;;;;5097401;28;20017;-67
2022/11/15 01:13:51;;;;;;;9.85;2.60;;;22.90;68.60;;;;;;5098431;28;20654;-68
2022/11/15 01:16:18;;;;;;;6.55;2.95;;;22.90;68.60;;;;;;5091688;28;20051;-67
2022/11/15 01:18:46;;;;;;;8.30;2.97;;;22.90;68.90;;;;;;5096212;28;20021;-66
2022/11/15 01:21:15;;;;;;;10.15;2.92;;;22.90;69.00;;;;;;5101715;28;20449;-68
2022/11/15 01:23:42;;;;;;;7.47;2.70;;;22.80;69.00;;;;;;5099276;28;20386;-69
2022/11/15 01:26:12;;;;;;;7.07;2.40;;;22.80;69.00;;;;;;5097378;27;20063;-68
2022/11/15 01:28:40;;;;;;;14.32;2.92;;;22.80;69.00;;;;;;5097246;28;20352;-69
2022/11/15 01:31:15;;;;;;;8.30;3.38;;;22.80;69.20;;;;;;5097525;28;20050;-70
2022/11/15 01:33:42;;;;;;;11.63;2.55;;;22.80;69.10;;;;;;5094760;28;20020;-67
2022/11/15 01:36:13;;;;;;;7.65;2.83;;;22.70;68.80;;;;;;5099622;28;20103;-66
2022/11/15 01:38:40;;;;;;;8.63;2.85;;;22.80;68.80;;;;;;5102161;28;20364;-70
2022/11/15 01:41:06;;;;;;;12.35;2.78;;;22.70;68.90;;;;;;5102854;28;20028;-68
2022/11/15 01:43:35;;;;;;;7.70;4.05;;;22.70;68.90;;;;;;5087895;28;20020;-67
2022/11/15 01:46:25;;;;;;;5.63;2.75;;;22.70;69.10;;;;;;5096441;28;20035;-68
2022/11/15 01:48:54;;;;;;;6.10;2.38;;;22.70;69.10;;;;;;5081241;28;20040;-67
2022/11/15 01:51:25;;;;;;;10.60;3.22;;;22.70;69.10;;;;;;5102269;28;20041;-68
2022/11/15 01:53:55;;;;;;;5.57;3.35;;;22.60;69.90;;;;;;5091694;28;20502;-69
2022/11/15 01:56:28;;;;;;;9.50;3.42;;;22.60;69.30;;;;;;5091694;28;20064;-70
2022/11/15 01:58:58;;;;;;;8.38;2.90;;;22.60;69.40;;;;;;5102072;28;20065;-66
2022/11/15 02:01:26;;;;;;;11.88;4.45;;;22.60;69.50;;;;;;5093342;28;20019;-67
2022/11/15 02:04:04;;;;;;;14.93;3.63;;;22.60;69.40;;;;;;5090546;28;20017;-68
2022/11/15 04:17:57;;;;;;;17.00;8.15;;;21.50;71.80;;;;;;5042848;28;20431;-68
2022/11/15 04:26:18;;;;;;;18.42;8.60;;;21.80;72.10;;;;;;5041922;28;20071;-71
2022/11/15 04:31:30;;;;;;;30.05;16.80;;;21.80;71.50;;;;;;5038306;28;20049;-72
2022/11/15 04:33:57;;;;;;;24.70;13.55;;;21.90;71.50;;;;;;5040713;28;20388;-66
2022/11/15 04:39:09;;;;;;;18.70;7.43;;;21.90;71.60;;;;;;5040286;28;20039;-71
2022/11/15 04:41:35;;;;;;;19.65;6.30;;;21.90;71.50;;;;;;5033534;28;20037;-69
2022/11/15 04:44:02;;;;;;;24.00;5.95;;;22.00;72.30;;;;;;5036597;28;20460;-70
2022/11/15 04:46:28;;;;;;;15.85;5.15;;;22.00;71.80;;;;;;5038585;28;20130;-67
2022/11/15 04:48:55;;;;;;;13.10;4.57;;;22.00;71.70;;;;;;5036592;28;20029;-71
2022/11/15 04:51:22;;;;;;;9.10;3.80;;;22.00;71.70;;;;;;5034126;28;20028;-71
2022/11/15 04:53:48;;;;;;;8.98;4.13;;;22.00;71.80;;;;;;5037099;28;20055;-68
2022/11/15 04:56:15;;;;;;;16.27;4.65;;;22.00;72.00;;;;;;5033726;28;20104;-69
2022/11/15 04:58:41;;;;;;;8.15;3.38;;;22.10;72.00;;;;;;5032859;28;20042;-67
2022/11/15 05:01:14;;;;;;;13.70;3.65;;;22.10;72.10;;;;;;5040432;28;20060;-72
2022/11/15 05:06:29;;;;;;;12.07;4.40;;;22.10;72.20;;;;;;5037502;28;20063;-71
2022/11/15 05:08:56;;;;;;;10.93;3.15;;;22.10;72.30;;;;;;5038964;28;20028;-72
2022/11/15 05:11:23;;;;;;;17.05;3.92;;;22.10;72.40;;;;;;5037835;28;20029;-71
2022/11/15 05:13:50;;;;;;;8.80;3.47;;;22.10;72.30;;;;;;5036853;28;20445;-71
2022/11/15 05:16:16;;;;;;;10.68;3.53;;;22.20;72.40;;;;;;5039397;28;20037;-69
2022/11/15 05:18:43;;;;;;;10.02;4.35;;;22.20;72.40;;;;;;5019054;28;20025;-68
2022/11/15 05:21:13;;;;;;;7.75;3.90;;;22.20;72.40;;;;;;5027194;28;20101;-68
2022/11/15 05:23:40;;;;;;;16.40;3.35;;;22.20;72.40;;;;;;5022908;28;20041;-72
2022/11/15 05:26:07;;;;;;;6.90;3.40;;;22.20;72.40;;;;;;5020896;28;20116;-73
2022/11/15 05:28:36;;;;;;;16.70;3.95;;;22.30;72.40;;;;;;5018875;28;20030;-72
2022/11/15 05:31:04;;;;;;;15.73;3.60;;;22.30;72.50;;;;;;5026210;28;20025;-70
2022/11/15 05:33:32;;;;;;;10.20;2.92;;;22.30;72.60;;;;;;5026341;28;20071;-70
2022/11/15 05:36:33;;;;;;;14.15;3.80;;;22.30;72.50;;;;;;5053359;28;20018;-70
2022/11/15 05:39:00;;;;;;;12.57;3.63;;;22.40;72.60;;;;;;5021380;28;20467;-72
2022/11/15 05:41:37;;;;;;;15.10;3.13;;;22.40;72.60;;;;;;5020711;28;20017;-70
2022/11/15 05:44:07;;;;;;;9.63;2.40;;;22.50;72.70;;;;;;5025613;28;20389;-71
2022/11/15 05:46:35;;;;;;;18.25;2.83;;;22.50;72.60;;;;;;5021183;28;20088;-71
2022/11/15 05:49:02;;;;;;;9.18;2.78;;;22.60;72.50;;;;;;5021541;28;20108;-70
2022/11/15 05:51:30;;;;;;;8.85;2.92;;;22.60;72.50;;;;;;5027083;28;20488;-71
2022/11/15 05:53:58;;;;;;;5.43;2.53;;;22.60;72.40;;;;;;5021753;28;20030;-73
2022/11/15 05:56:26;;;;;;;5.68;2.15;;;22.60;72.40;;;;;;5021251;28;20429;-70
2022/11/15 05:58:55;;;;;;;8.93;2.55;;;22.60;72.10;;;;;;5025309;28;20056;-72
2022/11/15 06:01:22;;;;;;;2.33;1.67;;;22.70;71.80;;;;;;5024580;28;20064;-73
2022/11/15 06:03:49;;;;;;;6.30;1.83;;;22.70;71.40;;;;;;5016289;28;20593;-70
2022/11/15 06:06:15;;;;;;;6.28;1.38;;;22.70;71.00;;;;;;5025500;28;20033;-73
2022/11/15 06:08:42;;;;;;;6.78;1.70;;;22.70;70.60;;;;;;5020987;28;20065;-72
2022/11/15 06:11:08;;;;;;;6.43;1.67;;;22.80;70.30;;;;;;5016860;28;20029;-72
2022/11/15 06:13:35;;;;;;;7.72;1.55;;;22.70;69.80;;;;;;5020920;28;20080;-72
2022/11/15 06:16:02;;;;;;;2.55;0.77;;;22.70;69.10;;;;;;5022036;28;20064;-72
2022/11/15 06:18:31;;;;;;;3.15;1.25;;;22.80;68.40;;;;;;5059452;28;20030;-72
2022/11/15 06:21:00;;;;;;;1.58;0.70;;;22.80;67.90;;;;;;5022051;28;20032;-72
2022/11/15 06:23:27;;;;;;;2.08;0.75;;;22.80;67.50;;;;;;5021868;28;20131;-73
2022/11/15 06:25:53;;;;;;;1.13;0.55;;;22.90;67.30;;;;;;5018998;28;20033;-73
2022/11/15 06:28:20;;;;;;;2.63;1.05;;;22.90;66.90;;;;;;5025040;28;20025;-73
2022/11/15 06:30:46;;;;;;;3.72;1.17;;;22.90;66.50;;;;;;5020069;28;20542;-73
2022/11/15 06:33:13;;;;;;;0.95;0.60;;;23.00;66.20;;;;;;5019314;28;20091;-72
2022/11/15 06:35:40;;;;;;;1.38;0.68;;;23.00;65.60;;;;;;5024174;28;20052;-72
2022/11/15 06:38:09;;;;;;;1.70;0.80;;;23.10;65.10;;;;;;5024223;28;20013;-70
2022/11/15 06:40:38;;;;;;;1.48;0.63;;;23.10;64.60;;;;;;5021061;28;20059;-73
2022/11/15 06:43:05;;;;;;;2.15;0.68;;;23.10;64.00;;;;;;5021756;28;20026;-71
2022/11/15 06:45:32;;;;;;;2.15;1.05;;;23.20;63.50;;;;;;5021183;28;20069;-72
2022/11/15 06:47:59;;;;;;;1.67;0.70;;;23.20;63.10;;;;;;5029820;28;20546;-73
2022/11/15 06:50:26;;;;;;;8.80;1.80;;;23.20;62.60;;;;;;5022998;28;20636;-72
2022/11/15 06:52:52;;;;;;;5.13;1.98;;;23.20;62.10;;;;;;5022024;28;21043;-70
2022/11/15 06:55:19;;;;;;;7.78;3.03;;;23.20;61.90;;;;;;5020764;28;20025;-71
2022/11/15 06:57:52;;;;;;;6.25;2.35;;;23.20;61.70;;;;;;5023175;28;20021;-70
2022/11/15 07:00:21;;;;;;;3.65;2.47;;;23.20;61.70;;;;;;5018947;28;20018;-68
2022/11/15 07:02:48;;;;;;;6.50;2.10;;;23.20;61.60;;;;;;5018667;28;20199;-71
2022/11/15 07:05:15;;;;;;;8.20;2.28;;;23.20;61.60;;;;;;5025796;28;20104;-68
2022/11/15 07:07:42;;;;;;;4.43;1.35;;;23.30;61.40;;;;;;5024290;28;20025;-69
2022/11/15 07:10:09;;;;;;;3.30;1.33;;;23.30;61.20;;;;;;5018182;28;20083;-69
2022/11/15 07:12:36;;;;;;;1.60;0.93;;;23.30;60.90;;;;;;5018535;28;20544;-71
2022/11/15 07:15:02;;;;;;;2.45;0.68;;;23.40;61.00;;;;;;5017212;28;20333;-70
2022/11/15 07:17:29;;;;;;;2.40;0.95;;;23.50;60.90;;;;;;5025653;28;20488;-71
2022/11/15 07:19:55;;;;;;;2.33;1.20;;;23.50;60.80;;;;;;5019774;28;20124;-71
2022/11/15 07:22:22;;;;;;;0.98;0.77;;;23.60;60.70;;;;;;5025134;28;20373;-73
2022/11/15 07:24:48;;;;;;;12.93;1.83;;;23.60;60.60;;;;;;5017426;28;20029;-68
2022/11/15 07:27:15;;;;;;;5.65;0.68;;;23.70;60.50;;;;;;5021075;28;20044;-73
2022/11/15 07:29:41;;;;;;;11.70;3.38;;;23.70;62.10;;;;;;5022484;28;20033;-71
2022/11/15 07:32:09;;;;;;;7.57;1.02;;;23.70;62.50;;;;;;5024033;28;20033;-69
2022/11/15 07:34:35;;;;;;;4.18;1.50;;;23.80;62.50;;;;;;5022429;28;20376;-67
2022/11/15 07:37:02;;;;;;;9.93;1.35;;;23.80;62.70;;;;;;5026765;28;20095;-69
2022/11/15 07:39:28;;;;;;;3.03;0.50;;;23.90;62.60;;;;;;5022360;28;20053;-72
2022/11/15 07:42:52;;;;;;;15.73;1.13;;;23.90;62.60;;;;;;5024158;28;20064;-73
2022/11/15 07:44:41;;;;;;;6.78;1.27;;;23.90;62.90;;;;;;5020571;28;20211;-69
2022/11/15 07:47:08;;;;;;;3.33;0.70;;;23.80;62.10;;;;;;5019661;28;20038;-70
2022/11/15 07:49:34;;;;;;;27.33;1.95;;;23.80;61.50;;;;;;5018929;28;20558;-72
2022/11/15 07:52:01;;;;;;;2.25;0.30;;;23.80;60.80;;;;;;5022507;28;20037;-69
2022/11/15 07:54:27;;;;;;;15.52;2.38;;;23.80;60.30;;;;;;5019613;28;20472;-73
2022/11/15 07:56:54;;;;;;;14.95;2.55;;;23.70;60.30;;;;;;5021415;28;20109;-69
2022/11/15 07:59:20;;;;;;;11.25;3.15;;;23.70;60.50;;;;;;5021682;28;20072;-70
2022/11/15 08:01:47;;;;;;;4.00;0.57;;;23.70;60.70;;;;;;5019340;28;20040;-72
2022/11/15 08:04:14;;;;;;;3.20;1.45;;;23.70;60.70;;;;;;5022276;28;20022;-69
2022/11/15 08:06:40;;;;;;;2.28;0.80;;;23.60;60.80;;;;;;5024542;28;20041;-69
2022/11/15 08:09:07;;;;;;;2.40;1.48;;;23.60;60.90;;;;;;5018024;28;20063;-72
2022/11/15 08:11:34;;;;;;;2.33;0.47;;;23.70;61.00;;;;;;5053735;28;20037;-71
2022/11/15 08:14:00;;;;;;;2.15;0.50;;;23.70;60.80;;;;;;5020196;28;20518;-69
2022/11/15 08:16:27;;;;;;;2.35;0.70;;;23.70;61.00;;;;;;5017748;28;20162;-70
2022/11/15 08:18:56;;;;;;;1.20;0.68;;;23.70;61.10;;;;;;5024837;28;20025;-72
2022/11/15 08:21:23;;;;;;;0.88;0.30;;;23.70;61.10;;;;;;5018059;28;20027;-72
2022/11/15 08:23:49;;;;;;;0.90;0.60;;;23.80;60.90;;;;;;5019108;28;20033;-68
2022/11/15 08:26:16;;;;;;;1.00;0.30;;;23.80;60.90;;;;;;5020508;28;20384;-70
2022/11/15 08:28:43;;;;;;;3.83;0.70;;;23.80;60.90;;;;;;5019689;28;20492;-69
2022/11/15 08:31:17;;;;;;;2.63;0.68;;;23.80;60.70;;;;;;5017987;28;20492;-71
2022/11/15 08:33:44;;;;;;;3.40;0.82;;;23.80;60.30;;;;;;5024102;28;20069;-69
2022/11/15 08:36:17;;;;;;;1.33;0.80;;;23.80;59.90;;;;;;5024126;28;20080;-73
2022/11/15 08:38:44;;;;;;;2.15;0.50;;;23.90;59.50;;;;;;5023150;28;20448;-73
2022/11/15 08:41:18;;;;;;;2.35;0.35;;;23.90;59.00;;;;;;5019556;28;20022;-65
2022/11/15 08:43:45;;;;;;;1.25;0.60;;;23.90;58.60;;;;;;5022816;28;20105;-70
2022/11/15 08:46:13;;;;;;;2.03;0.80;;;24.00;58.20;;;;;;5019870;28;20407;-73
2022/11/15 08:48:40;;;;;;;5.20;0.82;;;24.00;57.80;;;;;;5016612;28;20022;-74
2022/11/15 08:51:06;;;;;;;5.57;1.38;;;24.10;57.70;;;;;;5019116;28;20025;-73
2022/11/15 08:53:34;;;;;;;13.70;1.55;;;24.10;57.30;;;;;;5024542;28;20419;-71
2022/11/15 08:56:01;;;;;;;10.38;0.85;;;24.20;57.00;;;;;;5024423;28;20027;-71
2022/11/15 08:58:28;;;;;;;8.18;1.00;;;24.20;56.60;;;;;;5025841;28;20048;-74
2022/11/15 09:00:55;;;;;;;1.35;0.55;;;24.20;56.50;;;;;;5024178;28;20025;-73
2022/11/15 09:03:21;;;;;;;4.07;0.85;;;24.20;56.10;;;;;;5025286;28;20024;-74
2022/11/15 09:05:48;;;;;;;0.38;0.30;;;24.30;55.80;;;;;;5027116;28;20037;-73
2022/11/15 09:08:14;;;;;;;2.45;0.40;;;24.30;55.70;;;;;;5022528;28;20508;-71
2022/11/15 09:10:41;;;;;;;1.10;0.80;;;24.30;55.70;;;;;;5025473;28;20029;-70
2022/11/15 09:13:07;;;;;;;0.40;0.30;;;24.40;55.30;;;;;;5023216;28;20018;-70
2022/11/15 09:15:34;;;;;;;0.98;0.40;;;24.40;54.90;;;;;;5022047;28;20076;-74
2022/11/15 09:18:00;;;;;;;11.85;1.50;;;24.40;54.80;;;;;;5024362;28;20116;-74
2022/11/15 09:20:27;;;;;;;6.70;0.70;;;24.50;54.80;;;;;;5025961;28;20033;-74
2022/11/15 09:22:53;;;;;;;8.13;0.65;;;24.60;55.20;;;;;;5022105;28;20022;-73
2022/11/15 09:25:20;;;;;;;3.28;1.10;;;24.60;55.20;;;;;;5024042;28;20084;-74
2022/11/15 09:27:46;;;;;;;2.60;0.80;;;24.60;55.20;;;;;;5018698;28;20173;-72
2022/11/15 09:30:13;;;;;;;1.30;0.90;;;24.60;55.40;;;;;;5024684;28;20026;-71
2022/11/15 09:32:39;;;;;;;1.45;0.57;;;24.70;55.40;;;;;;5024693;28;20522;-73
2022/11/15 09:35:06;;;;;;;3.78;0.77;;;24.70;55.40;;;;;;5025805;28;20048;-74
2022/11/15 09:37:33;;;;;;;0.82;0.32;;;24.70;55.40;;;;;;5026700;28;20100;-72
2022/11/15 09:39:59;;;;;;;0.50;0.50;;;24.80;55.40;;;;;;5020096;28;20029;-74
2022/11/15 09:42:38;;;;;;;5.00;1.00;;;24.80;55.40;;;;;;5023566;28;20064;-74
2022/11/15 09:45:13;;;;;;;3.78;0.75;;;24.90;55.50;;;;;;5020794;28;20026;-70
2022/11/15 09:47:57;;;;;;;;;;;24.90;55.70;;;;;;5024076;28;20068;-73
2022/11/15 09:50:46;;;;;;;7.85;0.82;;;24.90;55.80;;;;;;5023185;28;19909;-74
2022/11/15 09:53:31;;;;;;;3.03;0.93;;;24.90;55.80;;;;;;5021755;28;20021;-73
2022/11/15 09:55:58;;;;;;;1.17;0.85;;;24.90;55.90;;;;;;5020917;28;20029;-74
2022/11/15 09:58:50;;;;;;;2.05;0.70;;;25.00;55.90;;;;;;5022849;28;20029;-73
2022/11/15 10:01:48;;;;;;;2.20;1.02;;;25.00;55.90;;;;;;5017521;28;20026;-74
2022/11/15 10:04:16;;;;;;;0.80;0.70;;;25.10;56.00;;;;;;5018504;28;20053;-73
2022/11/15 10:06:51;;;;;;;2.58;0.40;;;25.10;55.50;;;;;;5022740;28;20041;-71
2022/11/15 10:09:28;;;;;;;4.97;2.55;;;25.20;55.60;;;;;;5022209;28;20018;-74
2022/11/15 10:11:55;;;;;;;2.45;0.80;;;25.20;55.70;;;;;;5023251;28;20022;-74
2022/11/15 10:14:25;;;;;;;1.75;0.50;;;25.20;55.70;;;;;;5022990;28;20473;-73
2022/11/15 10:17:07;;;;;;;5.47;1.27;;;25.30;55.70;;;;;;5056179;28;20332;-73
2022/11/15 10:19:34;;;;;;;12.15;3.60;;;25.30;55.40;;;;;;5021106;28;20495;-73
2022/11/15 10:22:21;;;;;;;1.40;0.35;;;25.30;55.70;;;;;;5022573;28;20026;-73
2022/11/15 10:24:48;;;;;;;0.70;0.30;;;25.30;55.70;;;;;;5022736;28;20047;-72
2022/11/15 10:27:18;;;;;;;1.40;0.40;;;25.40;55.80;;;;;;5022267;28;20642;-72
2022/11/15 10:29:47;;;;;;;0.35;0.35;;;25.40;55.60;;;;;;5058548;28;20424;-73
2022/11/15 10:32:15;;;;;;;2.38;0.50;;;25.40;55.50;;;;;;5019472;28;20030;-73
2022/11/15 10:34:43;;;;;;;1.67;0.57;;;25.40;55.40;;;;;;5021871;28;20049;-72
2022/11/15 10:37:09;;;;;;;1.58;0.47;;;25.50;55.70;;;;;;5023415;28;20104;-72
2022/11/15 10:39:36;;;;;;;1.75;0.30;;;25.50;55.60;;;;;;5028826;28;20018;-73
2022/11/15 10:42:27;;;;;;;1.60;0.70;;;25.60;55.30;;;;;;5022242;28;20088;-72
2022/11/15 10:44:54;;;;;;;0.50;0.50;;;25.60;55.40;;;;;;5018406;28;20036;-72
2022/11/15 10:47:23;;;;;;;2.63;0.93;;;25.70;55.00;;;;;;5024993;28;20460;-70
2022/11/15 10:50:06;;;;;;;1.00;0.90;;;25.70;55.00;;;;;;5021560;28;20041;-73
2022/11/15 10:52:36;;;;;;;0.88;0.50;;;25.70;54.80;;;;;;5020247;28;20030;-72
2022/11/15 10:55:12;;;;;;;3.15;1.27;;;25.80;54.70;;;;;;5021589;28;21398;-73
2022/11/15 10:57:39;;;;;;;1.02;0.77;;;25.80;54.90;;;;;;5022941;28;20022;-72
2022/11/15 11:00:34;;;;;;;1.23;0.40;;;25.80;54.60;;;;;;5019474;28;20481;-73
2022/11/15 11:03:09;;;;;;;1.52;0.93;;;25.90;54.80;;;;;;5022203;28;20137;-73
2022/11/15 11:05:36;;;;;;;0.30;0.30;;;25.90;55.00;;;;;;5022229;28;20080;-72
2022/11/15 11:08:15;;;;;;;3.63;1.20;;;25.90;54.80;;;;;;5018664;28;20417;-71
2022/11/15 11:10:56;;;;;;;3.00;0.90;;;25.90;54.90;;;;;;5020143;28;20769;-72
2022/11/15 11:13:31;;;;;;;4.13;0.50;;;25.90;55.10;;;;;;5022270;28;20036;-72
2022/11/15 11:16:19;;;;;;;1.25;0.35;;;25.90;55.30;;;;;;5022871;28;20045;-72
2022/11/15 11:18:48;;;;;;;4.60;0.70;;;26.00;55.30;;;;;;5019232;28;20025;-72
2022/11/15 11:21:35;;;;;;;10.30;2.05;;;26.00;55.30;;;;;;5020225;28;20071;-69
2022/11/15 11:24:13;;;;;;;6.20;1.13;;;26.00;54.90;;;;;;5017484;28;20064;-68
2022/11/15 11:26:59;;;;;;;1.45;1.17;;;26.00;55.00;;;;;;5022858;28;20037;-73
2022/11/15 11:29:44;;;;;;;1.70;0.57;;;26.00;55.00;;;;;;5022954;28;20095;-73
2022/11/15 11:32:32;;;;;;;2.85;0.43;;;26.10;55.40;;;;;;5018627;28;20073;-73
2022/11/15 11:35:20;;;;;;;4.60;1.38;;;26.10;55.10;;;;;;5021753;28;20025;-69
2022/11/15 11:37:54;;;;;;;2.20;1.10;;;26.10;55.00;;;;;;5020773;28;20463;-72
2022/11/15 11:40:53;;;;;;;2.38;0.52;;;26.20;55.00;;;;;;5021127;28;20584;-72
2022/11/15 11:43:37;;;;;;;2.58;0.63;;;26.20;54.90;;;;;;5007349;28;20108;-72
2022/11/15 11:46:04;;;;;;;10.45;1.38;;;26.20;54.70;;;;;;5029185;28;20180;-70
2022/11/15 11:48:58;;;;;;;3.28;0.63;;;26.20;55.60;;;;;;5019192;28;20029;-71
2022/11/15 11:51:32;;;;;;;6.68;1.40;;;26.30;55.40;;;;;;5020298;28;20112;-71
2022/11/15 11:54:30;;;;;;;0.50;0.45;;;26.30;55.00;;;;;;5018207;28;20014;-73
2022/11/15 11:56:59;;;;;;;7.22;0.80;;;26.30;54.70;;;;;;5019086;28;20022;-70
2022/11/15 11:59:58;;;;;;;0.90;0.73;;;26.40;55.00;;;;;;5022217;28;20021;-74
2022/11/15 12:02:43;;;;;;;4.53;0.47;;;26.40;55.00;;;;;;4991053;28;20072;-70
2022/11/15 12:05:28;;;;;;;22.23;1.13;;;26.40;54.50;;;;;;5022737;28;20392;-69
2022/11/15 12:08:03;;;;;;;1.38;0.30;;;26.40;54.70;;;;;;5017206;28;20014;-72
2022/11/15 12:10:30;;;;;;;;;;;26.40;54.40;;;;;;5026192;28;20021;-72
2022/11/15 12:13:14;;;;;;;0.82;0.40;;;26.50;54.70;;;;;;5023826;28;20279;-72
2022/11/15 12:15:53;;;;;;;0.40;0.40;;;26.50;54.80;;;;;;5020401;28;20034;-71
2022/11/15 12:18:20;;;;;;;1.13;0.50;;;26.50;54.60;;;;;;5018430;28;20034;-73
2022/11/15 12:20:57;;;;;;;0.88;0.70;;;26.50;54.30;;;;;;5021930;28;20056;-71
2022/11/15 12:23:28;;;;;;;1.40;0.50;;;26.60;54.50;;;;;;5024912;28;20028;-73
2022/11/15 12:26:02;;;;;;;4.45;0.82;;;26.60;54.70;;;;;;5021262;28;20388;-72
2022/11/15 12:28:54;;;;;;;1.77;0.68;;;26.70;55.00;;;;;;5020809;28;20014;-71
2022/11/15 12:31:29;;;;;;;1.48;0.30;;;26.70;55.00;;;;;;5024379;28;20493;-70
2022/11/15 12:33:57;;;;;;;4.15;0.60;;;26.70;54.40;;;;;;5023600;28;20025;-72
2022/11/15 12:36:24;;;;;;;2.22;0.55;;;26.80;54.40;;;;;;5029005;28;20104;-71
2022/11/15 12:39:02;;;;;;;5.97;0.90;;;26.70;54.40;;;;;;5026200;28;20029;-69
2022/11/15 12:41:37;;;;;;;1.55;0.60;;;26.70;54.60;;;;;;5023769;28;20025;-72
2022/11/15 12:44:09;;;;;;;8.30;1.52;;;26.70;54.90;;;;;;5028891;28;20365;-70
2022/11/15 12:46:42;;;;;;;3.47;1.15;;;26.70;54.80;;;;;;5024590;28;20030;-72
2022/11/15 12:49:32;;;;;;;3.13;0.63;;;26.70;54.80;;;;;;5025420;28;20029;-71
2022/11/15 12:51:59;;;;;;;2.35;0.55;;;26.70;54.80;;;;;;5025951;28;20041;-73
2022/11/15 12:54:28;;;;;;;1.73;0.43;;;26.60;54.70;;;;;;5027594;28;20018;-69
2022/11/15 12:57:07;;;;;;;2.35;0.75;;;26.60;54.80;;;;;;5024569;28;20030;-71
2022/11/15 12:59:58;;;;;;;3.50;0.80;;;26.60;54.90;;;;;;5025178;28;20022;-72
2022/11/15 13:02:29;;;;;;;4.97;1.00;;;26.60;54.80;;;;;;5023063;28;20022;-69
2022/11/15 13:07:42;;;;;;;24.38;3.00;;;26.70;54.90;;;;;;5024552;28;20045;-72
2022/11/15 13:10:27;;;;;;;14.95;2.88;;;26.70;55.20;;;;;;5025156;28;20496;-72
2022/11/15 13:12:57;;;;;;;;;;;26.70;55.20;;;;;;5022518;28;20048;-71
2022/11/15 13:15:52;;;;;;;4.57;0.65;;;26.70;55.20;;;;;;5020043;28;19909;-71
2022/11/15 13:18:32;;;;;;;1.17;0.70;;;26.80;55.10;;;;;;5023008;28;20088;-72
2022/11/15 13:20:59;;;;;;;7.25;2.30;;;26.70;54.90;;;;;;5024559;28;20030;-69
2022/11/15 13:23:26;;;;;;;4.18;0.95;;;26.80;54.90;;;;;;5022437;28;20358;-73
2022/11/15 13:26:13;;;;;;;3.72;1.23;;;26.80;54.80;;;;;;5025655;28;20037;-72
2022/11/15 13:28:49;;;;;;;2.20;0.95;;;26.70;54.60;;;;;;5024730;28;20021;-71
2022/11/15 13:31:27;;;;;;;1.52;0.80;;;26.70;54.50;;;;;;5019794;28;20061;-72
2022/11/15 13:33:59;;;;;;;3.47;1.35;;;26.70;54.50;;;;;;5022992;28;20415;-71
2022/11/15 13:36:35;;;;;;;8.43;1.30;;;26.80;54.70;;;;;;5026365;28;20132;-71
2022/11/15 13:39:06;;;;;;;2.58;1.08;;;26.70;54.60;;;;;;5024165;28;20038;-71
2022/11/15 13:41:45;;;;;;;7.18;2.10;;;26.70;54.40;;;;;;5022487;28;20022;-71
2022/11/15 13:44:20;;;;;;;4.38;1.00;;;26.70;54.60;;;;;;5025423;28;20095;-71
2022/11/15 13:46:47;;;;;;;6.22;0.95;;;26.60;54.40;;;;;;5021656;28;20477;-69
2022/11/15 13:49:14;;;;;;;7.10;1.63;;;26.60;54.20;;;;;;5022061;28;20022;-72
2022/11/15 13:51:48;;;;;;;6.95;1.38;;;26.60;54.20;;;;;;5023329;28;20631;-72
2022/11/15 13:54:20;;;;;;;7.95;1.30;;;26.60;54.30;;;;;;5023362;28;20040;-72
2022/11/15 13:57:13;;;;;;;13.25;2.90;;;26.50;54.60;;;;;;5020224;28;20034;-72
2022/11/15 13:59:49;;;;;;;20.30;2.00;;;26.50;55.10;;;;;;5021196;28;20048;-71
2022/11/15 14:02:27;;;;;;;6.13;1.63;;;26.50;55.10;;;;;;5028248;28;20037;-72
2022/11/15 14:05:04;;;;;;;1.95;0.73;;;26.50;55.00;;;;;;5022453;28;20028;-71
2022/11/15 14:07:32;;;;;;;3.80;0.75;;;26.50;55.00;;;;;;5021622;28;20112;-71
2022/11/15 14:10:17;;;;;;;1.45;0.68;;;26.60;55.00;;;;;;5026018;28;20436;-72
2022/11/15 14:12:52;;;;;;;1.02;0.40;;;26.60;55.20;;;;;;5020432;28;20037;-70
2022/11/15 14:15:27;;;;;;;2.05;1.55;;;26.70;55.20;;;;;;5020364;28;20057;-73
2022/11/15 14:17:54;;;;;;;3.45;0.98;;;26.70;55.20;;;;;;5022845;28;20045;-73
2022/11/15 14:20:39;;;;;;;0.88;0.60;;;26.70;55.20;;;;;;5020549;28;20014;-69
2022/11/15 14:23:26;;;;;;;5.97;0.90;;;26.70;55.20;;;;;;5021341;28;20045;-72
2022/11/15 14:25:57;;;;;;;6.13;1.67;;;26.70;55.10;;;;;;5018180;28;20547;-71
2022/11/15 14:28:24;;;;;;;4.43;0.90;;;26.70;55.50;;;;;;5022275;28;20076;-69
2022/11/15 14:30:53;;;;;;;4.10;0.77;;;26.60;55.80;;;;;;5024677;28;20010;-71
2022/11/15 14:33:36;;;;;;;3.25;0.90;;;26.60;56.10;;;;;;5022049;28;20025;-71
2022/11/15 14:36:21;;;;;;;6.95;1.08;;;26.50;56.10;;;;;;5018269;28;20034;-70
2022/11/15 14:38:48;;;;;;;;;;;26.50;56.10;;;;;;5020200;28;20013;-71
2022/11/15 14:41:24;;;;;;;4.65;0.60;;;26.50;56.10;;;;;;5018720;28;19909;-68
2022/11/15 14:43:52;;;;;;;2.25;1.13;;;26.50;56.20;;;;;;5021912;28;20500;-69
2022/11/15 14:46:19;;;;;;;3.75;0.60;;;26.40;56.30;;;;;;5023195;28;20056;-70
2022/11/15 14:48:45;;;;;;;1.35;0.68;;;26.40;56.30;;;;;;5023779;28;20099;-69
2022/11/15 14:51:17;;;;;;;1.73;0.35;;;26.40;56.40;;;;;;5022308;28;20021;-70
2022/11/15 14:53:45;;;;;;;5.25;0.95;;;26.40;56.50;;;;;;5025004;28;20147;-70
2022/11/15 14:56:11;;;;;;;1.98;0.82;;;26.40;56.70;;;;;;5024573;28;20017;-70
2022/11/15 14:58:39;;;;;;;6.57;0.88;;;26.40;57.20;;;;;;5021631;28;20509;-69
2022/11/15 15:01:24;;;;;;;2.35;1.08;;;26.30;57.20;;;;;;5022727;28;20045;-70
2022/11/15 15:03:51;;;;;;;3.92;0.75;;;26.30;57.30;;;;;;5022712;28;20076;-71
2022/11/15 15:06:18;;;;;;;3.88;1.20;;;26.10;57.60;;;;;;5021507;28;20041;-68
2022/11/15 15:08:48;;;;;;;4.13;0.80;;;26.10;57.80;;;;;;5025994;28;20028;-72
2022/11/15 15:11:20;;;;;;;2.88;1.13;;;26.00;58.30;;;;;;5026420;28;20037;-71
2022/11/15 15:13:47;;;;;;;3.35;1.20;;;25.90;58.50;;;;;;5020758;28;20465;-71
2022/11/15 15:16:13;;;;;;;2.65;0.93;;;25.90;58.60;;;;;;5023678;28;20056;-73
2022/11/15 15:18:40;;;;;;;6.43;1.63;;;25.80;58.90;;;;;;5024999;28;20029;-75
2022/11/15 15:21:21;;;;;;;8.90;2.83;;;25.70;59.10;;;;;;5017778;28;20025;-73
2022/11/15 15:23:48;;;;;;;3.15;0.75;;;25.70;59.10;;;;;;5026367;28;20026;-71
2022/11/15 15:26:15;;;;;;;3.33;0.80;;;25.70;59.40;;;;;;5024990;28;20032;-72
2022/11/15 15:28:41;;;;;;;2.13;0.70;;;25.60;59.50;;;;;;5020118;28;20053;-71
2022/11/15 15:31:09;;;;;;;8.10;2.25;;;25.70;59.60;;;;;;5016055;28;20025;-73
2022/11/15 15:33:36;;;;;;;7.80;2.47;;;25.60;59.80;;;;;;5021348;28;20468;-71